createdAt,value
2022-12-01T00:02:25.439Z,12.40
2022-12-01T00:05:11.419Z,13.67
2022-12-01T00:07:57.761Z,13.90
2022-12-01T00:10:42.988Z,13.53
2022-12-01T00:13:28.240Z,13.37
2022-12-01T00:16:16.956Z,13.17
2022-12-01T00:19:02.799Z,11.70
2022-12-01T00:21:48.160Z,13.07
2022-12-01T00:24:33.404Z,12.93
2022-12-01T00:27:18.855Z,13.03
2022-12-01T00:30:05.567Z,12.60
2022-12-01T00:32:51.224Z,13.30
2022-12-01T00:35:36.532Z,12.40
2022-12-01T00:38:21.674Z,13.00
2022-12-01T00:41:07.232Z,12.53
2022-12-01T00:43:52.528Z,12.70
2022-12-01T00:46:38.509Z,12.83
2022-12-01T00:49:23.709Z,12.30
2022-12-01T00:52:09.257Z,12.23
2022-12-01T00:54:54.663Z,12.07
2022-12-01T00:57:39.964Z,12.40
2022-12-01T01:00:25.288Z,12.70
2022-12-01T01:03:11.317Z,12.43
2022-12-01T01:05:57.193Z,11.93
2022-12-01T01:08:42.720Z,11.97
2022-12-01T01:11:28.008Z,12.33
2022-12-01T01:14:13.292Z,12.20
2022-12-01T01:16:58.557Z,11.73
2022-12-01T01:19:43.823Z,11.67
2022-12-01T01:22:29.040Z,13.03
2022-12-01T01:25:14.368Z,12.10
2022-12-01T01:27:59.788Z,11.60
2022-12-01T01:30:45.026Z,12.10
2022-12-01T01:33:30.197Z,11.33
2022-12-01T01:36:16.613Z,12.40
2022-12-01T01:39:02.248Z,11.70
2022-12-01T01:41:47.732Z,12.73
2022-12-01T01:44:50.075Z,11.80
2022-12-01T01:47:40.702Z,12.03
2022-12-01T01:50:28.517Z,11.50
2022-12-01T01:53:15.072Z,11.57
2022-12-01T01:56:02.696Z,11.73
2022-12-01T01:58:48.228Z,11.40
2022-12-01T02:01:33.748Z,10.80
2022-12-01T02:04:20.570Z,11.77
2022-12-01T02:07:06.899Z,11.70
2022-12-01T02:09:53.829Z,11.40
2022-12-01T02:12:58.295Z,11.43
2022-12-01T02:16:04.175Z,11.23
2022-12-01T02:18:55.576Z,11.67
2022-12-01T02:22:11.667Z,11.50
2022-12-01T02:25:07.117Z,10.97
2022-12-01T02:28:15.212Z,11.37
2022-12-01T02:31:17.807Z,11.33
2022-12-01T02:34:10.652Z,11.37
2022-12-01T02:37:08.515Z,12.52
2022-12-01T02:40:15.054Z,11.00
2022-12-01T02:43:06.446Z,11.30
2022-12-01T02:46:11.820Z,11.57
2022-12-01T02:49:01.871Z,11.60
2022-12-01T02:51:49.722Z,10.97
2022-12-01T02:54:35.935Z,12.17
2022-12-01T02:57:21.413Z,11.63
2022-12-01T03:00:07.662Z,11.80
2022-12-01T03:03:07.132Z,11.07
2022-12-01T03:06:08.548Z,10.90
2022-12-01T03:09:08.077Z,11.63
2022-12-01T03:12:21.474Z,11.67
2022-12-01T03:15:35.719Z,11.00
2022-12-01T03:21:28.461Z,11.57
2022-12-01T03:24:17.420Z,11.40
2022-12-01T03:27:04.543Z,11.43
2022-12-01T03:29:54.840Z,11.27
2022-12-01T03:32:43.017Z,11.17
2022-12-01T03:35:39.259Z,11.47
2022-12-01T03:38:27.451Z,11.37
2022-12-01T03:41:18.179Z,10.50
2022-12-01T03:44:14.260Z,11.03
2022-12-01T03:47:08.695Z,12.03
2022-12-01T03:49:55.418Z,11.07
2022-12-01T03:52:56.051Z,10.80
2022-12-01T03:55:44.020Z,10.57
2022-12-01T03:58:35.009Z,11.17
2022-12-01T04:01:22.367Z,10.50
2022-12-01T04:04:11.292Z,11.33
2022-12-01T04:06:56.602Z,11.70
2022-12-01T04:09:42.104Z,11.60
2022-12-01T04:12:30.207Z,10.83
2022-12-01T04:15:16.730Z,10.70
2022-12-01T04:18:02.277Z,10.97
2022-12-01T04:20:49.243Z,11.17
2022-12-01T04:23:53.162Z,11.07
2022-12-01T04:26:38.519Z,11.35
2022-12-01T04:29:24.057Z,11.57
2022-12-01T04:32:09.622Z,11.30
2022-12-01T04:34:55.102Z,11.17
2022-12-01T04:37:41.059Z,11.47
2022-12-01T04:40:26.524Z,11.20
2022-12-01T04:43:11.707Z,11.80
2022-12-01T04:45:57.012Z,10.93
2022-12-01T04:48:43.386Z,11.53
2022-12-01T04:51:28.468Z,10.87
2022-12-01T04:54:15.187Z,11.50
2022-12-01T04:57:00.626Z,11.13
2022-12-01T04:59:45.980Z,10.93
2022-12-01T05:02:31.457Z,10.73
2022-12-01T05:05:17.217Z,11.70
2022-12-01T05:08:02.808Z,12.43
2022-12-01T05:10:55.827Z,12.33
2022-12-01T05:13:44.287Z,12.80
2022-12-01T05:16:32.570Z,11.83
2022-12-01T05:19:36.556Z,13.43
2022-12-01T05:22:42.540Z,13.20
2022-12-01T05:25:27.871Z,12.60
2022-12-01T05:28:13.346Z,12.73
2022-12-01T05:30:59.642Z,12.20
2022-12-01T05:33:45.134Z,11.73
2022-12-01T05:36:30.661Z,12.73
2022-12-01T05:39:17.138Z,11.63
2022-12-01T05:42:02.818Z,12.33
2022-12-01T05:44:48.669Z,12.10
2022-12-01T05:47:33.839Z,12.27
2022-12-01T05:50:19.271Z,11.57
2022-12-01T05:53:05.609Z,12.10
2022-12-01T05:55:54.537Z,12.73
2022-12-01T05:58:40.149Z,11.67
2022-12-01T06:01:25.605Z,11.13
2022-12-01T06:04:10.837Z,11.67
2022-12-01T06:06:56.244Z,11.90
2022-12-01T06:09:41.463Z,12.70
2022-12-01T06:12:26.709Z,13.47
2022-12-01T06:15:12.895Z,13.17
2022-12-01T06:18:01.720Z,13.50
2022-12-01T06:20:47.399Z,13.40
2022-12-01T06:23:32.986Z,13.03
2022-12-01T06:26:18.314Z,12.47
2022-12-01T06:29:03.730Z,13.37
2022-12-01T06:31:49.079Z,13.67
2022-12-01T06:34:34.861Z,12.23
2022-12-01T06:37:20.136Z,12.97
2022-12-01T06:40:06.018Z,13.57
2022-12-01T06:42:51.609Z,12.57
2022-12-01T06:45:36.973Z,11.97
2022-12-01T06:48:22.323Z,12.33
2022-12-01T06:51:07.691Z,12.20
2022-12-01T06:54:00.798Z,12.43
2022-12-01T06:56:49.644Z,12.63
2022-12-01T06:59:35.354Z,12.27
2022-12-01T07:02:21.415Z,11.87
2022-12-01T07:05:06.805Z,12.17
2022-12-01T07:07:57.919Z,12.33
2022-12-01T07:10:44.763Z,12.37
2022-12-01T07:13:33.622Z,12.40
2022-12-01T07:16:19.429Z,11.57
2022-12-01T07:19:04.748Z,12.20
2022-12-01T07:21:50.310Z,11.67
2022-12-01T07:24:36.344Z,12.60
2022-12-01T07:27:21.799Z,11.57
2022-12-01T07:30:07.599Z,12.20
2022-12-01T07:32:52.996Z,11.77
2022-12-01T07:35:38.228Z,11.73
2022-12-01T07:38:23.724Z,12.93
2022-12-01T07:41:12.257Z,11.87
2022-12-01T07:43:57.365Z,11.73
2022-12-01T07:46:42.608Z,12.40
2022-12-01T07:49:27.780Z,12.43
2022-12-01T07:52:13.109Z,12.33
2022-12-01T07:54:58.520Z,12.57
2022-12-01T07:57:43.821Z,12.70
2022-12-01T08:00:29.174Z,12.57
2022-12-01T08:03:14.711Z,12.10
2022-12-01T08:06:01.582Z,12.07
2022-12-01T08:08:47.910Z,12.20
2022-12-01T08:11:33.730Z,12.27
2022-12-01T08:14:19.391Z,12.90
2022-12-01T08:17:04.838Z,12.30
2022-12-01T08:19:50.447Z,12.90
2022-12-01T08:22:35.905Z,12.70
2022-12-01T08:25:21.081Z,12.97
2022-12-01T08:28:06.595Z,12.50
2022-12-01T08:30:51.967Z,12.10
2022-12-01T08:33:37.144Z,11.63
2022-12-01T08:36:23.472Z,11.90
2022-12-01T08:39:09.168Z,12.20
2022-12-01T08:41:54.741Z,11.63
2022-12-01T08:44:40.117Z,11.97
2022-12-01T08:47:28.098Z,11.97
2022-12-01T08:50:13.660Z,11.70
2022-12-01T08:52:58.914Z,10.97
2022-12-01T08:55:44.183Z,12.10
2022-12-01T08:58:29.798Z,12.63
2022-12-01T09:01:16.476Z,11.80
2022-12-01T09:04:06.353Z,12.50
2022-12-01T09:06:53.828Z,12.93
2022-12-01T09:09:39.158Z,12.23
2022-12-01T09:12:24.497Z,12.60
2022-12-01T09:15:10.237Z,12.13
2022-12-01T09:17:55.534Z,12.10
2022-12-01T09:20:40.775Z,13.40
2022-12-01T09:23:26.873Z,12.33
2022-12-01T09:26:13.915Z,12.53
2022-12-01T09:29:02.828Z,12.60
2022-12-01T09:31:48.480Z,11.80
2022-12-01T09:34:33.732Z,12.93
2022-12-01T09:37:18.931Z,12.47
2022-12-01T09:40:04.592Z,12.30
2022-12-01T09:42:50.492Z,12.67
2022-12-01T09:45:40.091Z,12.10
2022-12-01T09:48:34.888Z,12.03
2022-12-01T09:51:23.642Z,12.50
2022-12-01T09:54:13.162Z,11.70
2022-12-01T09:57:00.281Z,12.17
2022-12-01T09:59:46.608Z,12.37
2022-12-01T10:02:41.193Z,12.87
2022-12-01T10:05:34.379Z,12.90
2022-12-01T10:08:27.000Z,12.50
2022-12-01T10:11:35.561Z,13.05
2022-12-01T10:14:22.100Z,12.70
2022-12-01T10:17:21.750Z,13.53
2022-12-01T10:20:39.725Z,12.33
2022-12-01T10:23:28.200Z,12.57
2022-12-01T10:26:20.597Z,12.50
2022-12-01T10:29:11.183Z,12.43
2022-12-01T10:32:12.447Z,12.97
2022-12-01T10:34:58.005Z,12.83
2022-12-01T10:37:45.661Z,12.90
2022-12-01T10:40:35.183Z,12.97
2022-12-01T10:43:45.522Z,12.57
2022-12-01T10:46:54.953Z,11.87
2022-12-01T10:49:41.511Z,12.17
2022-12-01T10:52:33.248Z,12.40
2022-12-01T10:55:26.297Z,11.90
2022-12-01T10:58:16.999Z,13.32
2022-12-01T11:01:05.958Z,12.27
2022-12-01T11:03:57.541Z,12.50
2022-12-01T11:06:50.239Z,12.70
2022-12-01T11:09:35.840Z,13.02
2022-12-01T11:12:21.319Z,13.00
2022-12-01T11:15:07.993Z,13.30
2022-12-01T11:18:02.484Z,13.30
2022-12-01T11:20:48.606Z,13.63
2022-12-01T11:23:55.106Z,14.70
2022-12-01T11:26:40.908Z,13.03
2022-12-01T11:29:31.993Z,13.07
2022-12-01T11:32:20.293Z,13.47
2022-12-01T11:35:21.074Z,13.27
2022-12-01T11:38:29.340Z,13.10
2022-12-01T11:41:45.108Z,12.43
2022-12-01T11:44:50.849Z,12.87
2022-12-01T11:48:01.411Z,13.00
2022-12-01T11:51:08.162Z,12.60
2022-12-01T11:54:23.695Z,13.13
2022-12-01T11:57:33.259Z,12.10
2022-12-01T12:00:17.814Z,12.70
2022-12-01T12:03:15.328Z,11.93
2022-12-01T12:09:28.087Z,13.83
2022-12-01T12:12:13.504Z,13.48
2022-12-01T12:14:58.719Z,13.83
2022-12-01T12:18:23.027Z,13.17
2022-12-01T12:24:12.112Z,13.90
2022-12-01T12:27:12.715Z,13.73
2022-12-01T12:29:58.185Z,13.87
2022-12-01T12:32:46.450Z,14.03
2022-12-01T12:35:41.061Z,13.73
2022-12-01T12:38:36.962Z,13.87
2022-12-01T12:41:56.043Z,13.47
2022-12-01T12:45:04.899Z,14.00
2022-12-01T12:48:16.049Z,13.30
2022-12-01T12:51:13.606Z,13.70
2022-12-01T12:54:25.441Z,13.47
2022-12-01T12:57:26.000Z,13.13
2022-12-01T13:00:18.517Z,13.03
2022-12-01T13:03:49.149Z,13.43
2022-12-01T13:06:52.948Z,13.67
2022-12-01T13:09:43.890Z,14.10
2022-12-01T13:12:39.032Z,14.23
2022-12-01T13:15:25.877Z,12.93
2022-12-01T13:18:35.335Z,13.87
2022-12-01T13:21:24.028Z,13.23
2022-12-01T13:24:18.565Z,13.13
2022-12-01T13:27:10.971Z,13.20
2022-12-01T13:29:56.534Z,12.80
2022-12-01T13:32:43.119Z,12.80
2022-12-01T13:35:35.370Z,13.53
2022-12-01T13:38:33.648Z,13.30
2022-12-01T13:41:19.180Z,12.80
2022-12-01T13:44:07.214Z,13.57
2022-12-01T13:47:12.933Z,13.47
2022-12-01T13:51:01.127Z,12.93
2022-12-01T13:54:17.187Z,12.77
2022-12-01T13:57:11.008Z,13.50
2022-12-01T14:00:00.026Z,13.55
2022-12-01T14:02:46.253Z,14.07
2022-12-01T14:06:04.743Z,14.17
2022-12-01T14:08:51.733Z,13.80
2022-12-01T14:11:37.204Z,14.60
2022-12-01T14:14:26.342Z,15.27
2022-12-01T14:17:34.649Z,14.97
2022-12-01T14:20:22.920Z,14.33
2022-12-01T14:23:16.290Z,15.53
2022-12-01T14:26:20.889Z,14.65
2022-12-01T14:29:06.271Z,14.73
2022-12-01T14:31:51.950Z,15.33
2022-12-01T14:34:38.408Z,13.80
2022-12-01T14:37:29.351Z,14.73
2022-12-01T14:40:19.156Z,14.47
2022-12-01T14:43:23.695Z,14.57
2022-12-01T14:46:11.671Z,15.73
2022-12-01T14:48:58.795Z,15.13
2022-12-01T14:51:48.222Z,14.53
2022-12-01T14:54:43.284Z,14.77
2022-12-01T14:57:41.818Z,15.50
2022-12-01T15:00:27.465Z,15.37
2022-12-01T15:03:14.445Z,15.17
2022-12-01T15:06:00.048Z,15.60
2022-12-01T15:09:04.168Z,14.73
2022-12-01T15:11:59.216Z,14.13
2022-12-01T15:14:49.533Z,15.00
2022-12-01T15:17:37.095Z,14.77
2022-12-01T15:20:33.813Z,15.50
2022-12-01T15:23:19.207Z,15.27
2022-12-01T15:26:04.698Z,16.03
2022-12-01T15:28:51.280Z,14.67
2022-12-01T15:31:36.966Z,14.73
2022-12-01T15:34:26.822Z,15.33
2022-12-01T15:37:21.938Z,15.40
2022-12-01T15:40:59.647Z,15.93
2022-12-01T15:43:23.473Z,25.20
2022-12-01T15:46:17.795Z,20.80
2022-12-01T15:49:40.330Z,17.83
2022-12-01T15:52:25.596Z,17.97
2022-12-01T15:55:32.997Z,17.03
2022-12-01T15:58:24.786Z,17.90
2022-12-01T16:01:14.656Z,18.60
2022-12-01T16:04:04.585Z,17.97
2022-12-01T16:07:02.004Z,16.33
2022-12-01T16:09:58.426Z,17.27
2022-12-01T16:12:43.777Z,17.07
2022-12-01T16:15:29.026Z,18.10
2022-12-01T16:18:31.488Z,16.27
2022-12-01T16:21:17.439Z,16.60
2022-12-01T16:24:05.840Z,16.30
2022-12-01T16:27:22.512Z,16.13
2022-12-01T16:30:22.130Z,16.80
2022-12-01T16:33:16.429Z,16.30
2022-12-01T16:36:03.553Z,15.43
2022-12-01T16:38:49.328Z,16.40
2022-12-01T16:41:39.282Z,16.63
2022-12-01T16:44:29.150Z,15.33
2022-12-01T16:47:20.970Z,16.50
2022-12-01T16:50:07.196Z,16.10
2022-12-01T16:52:52.359Z,15.80
2022-12-01T16:55:39.272Z,15.80
2022-12-01T16:58:24.704Z,14.83
2022-12-01T17:01:10.272Z,16.23
2022-12-01T17:03:55.639Z,15.53
2022-12-01T17:06:41.243Z,14.57
2022-12-01T17:09:26.768Z,14.50
2022-12-01T17:12:12.262Z,14.40
2022-12-01T17:14:57.527Z,14.33
2022-12-01T17:17:43.227Z,15.07
2022-12-01T17:20:28.782Z,14.67
2022-12-01T17:23:14.035Z,14.60
2022-12-01T17:26:00.782Z,17.00
2022-12-01T17:28:46.418Z,17.57
2022-12-01T17:31:31.733Z,19.57
2022-12-01T17:34:17.115Z,19.03
2022-12-01T17:37:02.932Z,18.47
2022-12-01T17:39:49.472Z,19.23
2022-12-01T17:42:35.124Z,18.67
2022-12-01T17:45:21.856Z,18.30
2022-12-01T17:48:09.145Z,19.17
2022-12-01T17:50:54.579Z,19.20
2022-12-01T17:53:40.456Z,20.17
2022-12-01T17:56:27.248Z,20.97
2022-12-01T17:59:12.570Z,20.47
2022-12-01T18:01:57.897Z,19.73
2022-12-01T18:04:43.173Z,23.23
2022-12-01T18:07:29.307Z,24.50
2022-12-01T18:10:14.893Z,26.30
2022-12-01T18:13:00.805Z,26.57
2022-12-01T18:15:46.584Z,26.30
2022-12-01T18:18:31.818Z,26.77
2022-12-01T18:21:19.822Z,26.37
2022-12-01T18:24:09.171Z,27.43
2022-12-01T18:26:56.612Z,26.27
2022-12-01T18:29:42.374Z,29.03
2022-12-01T18:32:28.221Z,26.27
2022-12-01T18:35:13.698Z,22.97
2022-12-01T18:37:59.063Z,21.90
2022-12-01T18:40:45.022Z,22.30
2022-12-01T18:43:32.197Z,22.63
2022-12-01T18:46:19.491Z,22.43
2022-12-01T18:49:06.713Z,22.60
2022-12-01T18:51:51.969Z,21.50
2022-12-01T18:54:37.462Z,22.63
2022-12-01T18:57:22.760Z,22.43
2022-12-01T19:00:09.886Z,22.90
2022-12-01T19:02:55.636Z,22.03
2022-12-01T19:05:41.198Z,21.93
2022-12-01T19:08:26.572Z,22.63
2022-12-01T19:11:11.926Z,22.37
2022-12-01T19:13:57.515Z,23.13
2022-12-01T19:16:43.687Z,22.47
2022-12-01T19:19:30.895Z,24.33
2022-12-01T19:22:19.590Z,22.27
2022-12-01T19:25:05.377Z,22.90
2022-12-01T19:27:53.219Z,22.03
2022-12-01T19:30:38.624Z,23.37
2022-12-01T19:33:24.036Z,23.13
2022-12-01T19:36:12.141Z,21.47
2022-12-01T19:39:00.168Z,22.30
2022-12-01T19:41:46.123Z,22.10
2022-12-01T19:44:31.742Z,21.23
2022-12-01T19:47:21.893Z,21.63
2022-12-01T19:50:08.879Z,20.73
2022-12-01T19:52:54.372Z,21.40
2022-12-01T19:55:39.609Z,20.57
2022-12-01T19:58:25.514Z,21.00
2022-12-01T20:01:13.502Z,20.63
2022-12-01T20:04:00.072Z,20.73
2022-12-01T20:06:45.809Z,19.90
2022-12-01T20:09:31.536Z,20.10
2022-12-01T20:12:17.259Z,20.20
2022-12-01T20:15:07.294Z,19.67
2022-12-01T20:17:53.934Z,19.10
2022-12-01T20:20:39.184Z,19.97
2022-12-01T20:23:24.513Z,19.30
2022-12-01T20:26:10.719Z,19.50
2022-12-01T20:29:01.718Z,19.63
2022-12-01T20:31:48.096Z,19.23
2022-12-01T20:34:35.655Z,18.87
2022-12-01T20:37:21.117Z,18.60
2022-12-01T20:40:07.350Z,18.87
2022-12-01T20:42:52.720Z,17.90
2022-12-01T20:45:37.958Z,18.57
2022-12-01T20:48:23.349Z,18.73
2022-12-01T20:51:09.660Z,18.17
2022-12-01T20:54:26.190Z,17.30
2022-12-01T20:57:00.669Z,17.50
2022-12-01T20:59:45.878Z,17.17
2022-12-01T21:02:31.176Z,16.90
2022-12-01T21:05:16.644Z,17.10
2022-12-01T21:08:02.468Z,16.90
2022-12-01T21:10:48.270Z,17.30
2022-12-01T21:13:39.446Z,17.70
2022-12-01T21:16:32.415Z,17.50
2022-12-01T21:19:25.958Z,16.92
2022-12-01T21:22:12.884Z,16.63
2022-12-01T21:25:18.724Z,17.27
2022-12-01T21:28:17.985Z,16.30
2022-12-01T21:31:12.376Z,15.53
2022-12-01T21:33:58.326Z,17.33
2022-12-01T21:36:43.537Z,15.87
2022-12-01T21:39:30.208Z,16.03
2022-12-01T21:42:20.209Z,16.07
2022-12-01T21:45:16.775Z,15.53
2022-12-01T21:48:17.740Z,15.57
2022-12-01T21:51:23.038Z,15.17
2022-12-01T21:54:13.532Z,14.77
2022-12-01T21:56:59.163Z,15.30
2022-12-01T21:59:44.404Z,15.23
2022-12-01T22:03:08.020Z,15.10
2022-12-01T22:06:29.661Z,15.75
2022-12-01T22:09:35.766Z,14.80
2022-12-01T22:12:29.038Z,14.73
2022-12-01T22:15:39.401Z,14.77
2022-12-01T22:18:36.450Z,14.83
2022-12-01T22:21:21.736Z,14.63
2022-12-01T22:24:10.253Z,14.83
2022-12-01T22:27:20.536Z,14.13
2022-12-01T22:30:05.959Z,14.67
2022-12-01T22:33:03.759Z,14.57
2022-12-01T22:35:52.966Z,14.57
2022-12-01T22:38:39.725Z,14.30
2022-12-01T22:41:26.886Z,14.57
2022-12-01T22:44:13.169Z,14.70
2022-12-01T22:47:02.131Z,14.50
2022-12-01T22:49:47.655Z,14.60
2022-12-01T22:52:32.833Z,14.27
2022-12-01T22:55:19.699Z,14.93
2022-12-01T22:58:27.791Z,14.17
2022-12-01T23:01:30.243Z,13.97
2022-12-01T23:04:23.449Z,13.63
2022-12-01T23:10:19.905Z,12.73
2022-12-01T23:13:18.556Z,14.50
2022-12-01T23:16:04.516Z,14.53
2022-12-01T23:18:49.800Z,14.33
2022-12-01T23:21:35.737Z,14.93
2022-12-01T23:24:21.371Z,14.10
2022-12-01T23:27:07.357Z,14.43
2022-12-01T23:29:52.650Z,15.50
2022-12-01T23:32:38.146Z,14.60
2022-12-01T23:35:23.635Z,13.07
2022-12-01T23:38:15.857Z,14.10
2022-12-01T23:41:05.117Z,14.00
2022-12-01T23:43:50.843Z,14.03
2022-12-01T23:46:36.836Z,13.27
2022-12-01T23:49:32.284Z,13.63
2022-12-01T23:52:21.152Z,13.53
2022-12-01T23:55:39.341Z,14.37
2022-12-01T23:58:24.611Z,13.47
